sensor_id;sensor_type;location;lat;lon;timestamp;P1;durP1;ratioP1;P2;durP2;ratioP2
5125;SDS011;63008;53.112;8.896;2023-10-08T00:00:22;8.20;;;3.10;;
5125;SDS011;63008;53.112;8.896;2023-10-08T00:02:42;4.57;;;2.57;;
5125;SDS011;63008;53.112;8.896;2023-10-08T00:04:43;5.87;;;3.80;;
5125;SDS011;63008;53.112;8.896;2023-10-08T00:06:45;8.87;;;3.47;;
5125;SDS011;63008;53.112;8.896;2023-10-08T00:08:47;14.07;;;4.10;;
5125;SDS011;63008;53.112;8.896;2023-10-08T00:10:48;4.80;;;3.23;;
5125;SDS011;63008;53.112;8.896;2023-10-08T00:12:49;7.43;;;3.50;;
5125;SDS011;63008;53.112;8.896;2023-10-08T00:14:51;5.30;;;3.10;;
5125;SDS011;63008;53.112;8.896;2023-10-08T00:16:54;5.27;;;3.83;;
5125;SDS011;63008;53.112;8.896;2023-10-08T00:18:55;6.27;;;3.00;;
5125;SDS011;63008;53.112;8.896;2023-10-08T00:21:00;6.67;;;3.33;;
5125;SDS011;63008;53.112;8.896;2023-10-08T00:23:24;4.63;;;3.50;;
5125;SDS011;63008;53.112;8.896;2023-10-08T00:25:27;6.60;;;3.67;;
5125;SDS011;63008;53.112;8.896;2023-10-08T00:27:28;3.30;;;3.10;;
5125;SDS011;63008;53.112;8.896;2023-10-08T00:29:39;5.80;;;4.13;;
5125;SDS011;63008;53.112;8.896;2023-10-08T00:31:40;3.77;;;3.50;;
5125;SDS011;63008;53.112;8.896;2023-10-08T00:33:42;3.93;;;3.40;;
5125;SDS011;63008;53.112;8.896;2023-10-08T00:35:44;4.83;;;3.77;;
5125;SDS011;63008;53.112;8.896;2023-10-08T00:37:46;4.50;;;3.70;;
5125;SDS011;63008;53.112;8.896;2023-10-08T00:39:49;4.33;;;3.90;;
5125;SDS011;63008;53.112;8.896;2023-10-08T00:41:50;3.90;;;3.60;;
5125;SDS011;63008;53.112;8.896;2023-10-08T00:43:58;3.80;;;3.47;;
5125;SDS011;63008;53.112;8.896;2023-10-08T00:46:06;4.90;;;3.50;;
5125;SDS011;63008;53.112;8.896;2023-10-08T00:48:20;4.17;;;3.77;;
5125;SDS011;63008;53.112;8.896;2023-10-08T00:50:22;3.70;;;3.40;;
5125;SDS011;63008;53.112;8.896;2023-10-08T00:52:31;3.60;;;3.27;;
5125;SDS011;63008;53.112;8.896;2023-10-08T00:54:41;4.70;;;4.30;;
5125;SDS011;63008;53.112;8.896;2023-10-08T00:56:57;6.70;;;3.33;;
5125;SDS011;63008;53.112;8.896;2023-10-08T00:58:58;3.73;;;3.40;;
5125;SDS011;63008;53.112;8.896;2023-10-08T01:01:01;4.40;;;3.90;;
5125;SDS011;63008;53.112;8.896;2023-10-08T01:03:05;4.03;;;3.53;;
5125;SDS011;63008;53.112;8.896;2023-10-08T01:05:15;3.70;;;3.40;;
5125;SDS011;63008;53.112;8.896;2023-10-08T01:07:25;4.30;;;3.90;;
5125;SDS011;63008;53.112;8.896;2023-10-08T01:09:28;6.53;;;4.20;;
5125;SDS011;63008;53.112;8.896;2023-10-08T01:14:13;6.20;;;3.87;;
5125;SDS011;63008;53.112;8.896;2023-10-08T01:16:15;4.50;;;4.07;;
5125;SDS011;63008;53.112;8.896;2023-10-08T01:18:18;4.10;;;3.70;;
5125;SDS011;63008;53.112;8.896;2023-10-08T01:20:29;3.43;;;3.13;;
5125;SDS011;63008;53.112;8.896;2023-10-08T01:22:44;5.87;;;3.30;;
5125;SDS011;63008;53.112;8.896;2023-10-08T01:24:45;3.03;;;2.70;;
5125;SDS011;63008;53.112;8.896;2023-10-08T01:26:49;10.93;;;3.10;;
5125;SDS011;63008;53.112;8.896;2023-10-08T01:28:50;3.33;;;2.80;;
5125;SDS011;63008;53.112;8.896;2023-10-08T01:30:53;11.13;;;2.87;;
5125;SDS011;63008;53.112;8.896;2023-10-08T01:32:55;9.03;;;3.70;;
5125;SDS011;63008;53.112;8.896;2023-10-08T01:34:56;4.37;;;2.67;;
5125;SDS011;63008;53.112;8.896;2023-10-08T01:36:57;4.67;;;4.10;;
5125;SDS011;63008;53.112;8.896;2023-10-08T01:39:03;6.60;;;3.00;;
5125;SDS011;63008;53.112;8.896;2023-10-08T01:41:07;6.57;;;3.00;;
5125;SDS011;63008;53.112;8.896;2023-10-08T01:43:19;7.93;;;2.70;;
5125;SDS011;63008;53.112;8.896;2023-10-08T01:45:21;8.30;;;2.90;;
5125;SDS011;63008;53.112;8.896;2023-10-08T01:47:25;4.87;;;3.10;;
5125;SDS011;63008;53.112;8.896;2023-10-08T01:49:26;7.70;;;2.90;;
5125;SDS011;63008;53.112;8.896;2023-10-08T01:51:32;13.27;;;3.30;;
5125;SDS011;63008;53.112;8.896;2023-10-08T01:53:42;10.63;;;3.07;;
5125;SDS011;63008;53.112;8.896;2023-10-08T01:55:42;2.83;;;2.37;;
5125;SDS011;63008;53.112;8.896;2023-10-08T01:57:49;4.53;;;2.43;;
5125;SDS011;63008;53.112;8.896;2023-10-08T01:59:54;4.60;;;2.40;;
5125;SDS011;63008;53.112;8.896;2023-10-08T02:01:55;4.80;;;2.37;;
5125;SDS011;63008;53.112;8.896;2023-10-08T02:03:57;6.73;;;2.73;;
5125;SDS011;63008;53.112;8.896;2023-10-08T02:05:58;5.27;;;2.70;;
5125;SDS011;63008;53.112;8.896;2023-10-08T02:08:00;3.97;;;2.17;;
5125;SDS011;63008;53.112;8.896;2023-10-08T02:10:04;4.33;;;2.23;;
5125;SDS011;63008;53.112;8.896;2023-10-08T02:12:06;6.63;;;2.17;;
5125;SDS011;63008;53.112;8.896;2023-10-08T02:14:07;3.17;;;1.37;;
5125;SDS011;63008;53.112;8.896;2023-10-08T02:16:08;4.73;;;1.93;;
5125;SDS011;63008;53.112;8.896;2023-10-08T02:18:10;4.83;;;2.10;;
5125;SDS011;63008;53.112;8.896;2023-10-08T02:20:11;3.27;;;1.90;;
5125;SDS011;63008;53.112;8.896;2023-10-08T02:22:12;8.33;;;2.30;;
5125;SDS011;63008;53.112;8.896;2023-10-08T02:24:14;5.83;;;2.33;;
5125;SDS011;63008;53.112;8.896;2023-10-08T02:26:14;9.73;;;2.20;;
5125;SDS011;63008;53.112;8.896;2023-10-08T02:28:16;5.33;;;2.30;;
5125;SDS011;63008;53.112;8.896;2023-10-08T02:30:20;9.80;;;3.07;;
5125;SDS011;63008;53.112;8.896;2023-10-08T02:32:21;9.60;;;2.17;;
5125;SDS011;63008;53.112;8.896;2023-10-08T02:34:23;4.67;;;2.17;;
5125;SDS011;63008;53.112;8.896;2023-10-08T02:36:24;3.77;;;2.23;;
5125;SDS011;63008;53.112;8.896;2023-10-08T02:38:25;11.80;;;2.00;;
5125;SDS011;63008;53.112;8.896;2023-10-08T02:40:27;4.90;;;2.20;;
5125;SDS011;63008;53.112;8.896;2023-10-08T02:42:28;8.83;;;2.10;;
5125;SDS011;63008;53.112;8.896;2023-10-08T02:44:29;16.17;;;2.70;;
5125;SDS011;63008;53.112;8.896;2023-10-08T02:46:31;7.80;;;2.20;;
5125;SDS011;63008;53.112;8.896;2023-10-08T02:48:34;9.20;;;1.97;;
5125;SDS011;63008;53.112;8.896;2023-10-08T02:50:35;5.93;;;1.90;;
5125;SDS011;63008;53.112;8.896;2023-10-08T02:52:37;10.37;;;2.30;;
5125;SDS011;63008;53.112;8.896;2023-10-08T02:54:38;6.13;;;2.27;;
5125;SDS011;63008;53.112;8.896;2023-10-08T02:56:39;8.93;;;1.80;;
5125;SDS011;63008;53.112;8.896;2023-10-08T02:58:40;5.60;;;2.70;;
5125;SDS011;63008;53.112;8.896;2023-10-08T03:00:42;8.57;;;2.83;;
5125;SDS011;63008;53.112;8.896;2023-10-08T03:02:44;5.60;;;2.23;;
5125;SDS011;63008;53.112;8.896;2023-10-08T03:04:47;4.53;;;1.80;;
5125;SDS011;63008;53.112;8.896;2023-10-08T03:06:51;9.23;;;2.27;;
5125;SDS011;63008;53.112;8.896;2023-10-08T03:08:55;13.63;;;2.30;;
5125;SDS011;63008;53.112;8.896;2023-10-08T03:10:56;4.60;;;2.00;;
5125;SDS011;63008;53.112;8.896;2023-10-08T03:13:03;7.63;;;2.10;;
5125;SDS011;63008;53.112;8.896;2023-10-08T03:15:06;9.13;;;2.30;;
5125;SDS011;63008;53.112;8.896;2023-10-08T03:17:13;5.40;;;2.13;;
5125;SDS011;63008;53.112;8.896;2023-10-08T03:19:21;9.17;;;2.60;;
5125;SDS011;63008;53.112;8.896;2023-10-08T03:21:22;6.70;;;2.57;;
5125;SDS011;63008;53.112;8.896;2023-10-08T03:23:44;10.83;;;3.23;;
5125;SDS011;63008;53.112;8.896;2023-10-08T03:25:51;3.43;;;2.60;;
5125;SDS011;63008;53.112;8.896;2023-10-08T03:27:59;6.93;;;2.63;;
5125;SDS011;63008;53.112;8.896;2023-10-08T03:30:00;11.90;;;2.60;;
5125;SDS011;63008;53.112;8.896;2023-10-08T03:32:01;9.50;;;2.87;;
5125;SDS011;63008;53.112;8.896;2023-10-08T03:34:06;8.80;;;2.43;;
5125;SDS011;63008;53.112;8.896;2023-10-08T03:36:08;3.43;;;2.07;;
5125;SDS011;63008;53.112;8.896;2023-10-08T03:38:21;6.37;;;2.40;;
5125;SDS011;63008;53.112;8.896;2023-10-08T03:40:28;5.70;;;2.70;;
5125;SDS011;63008;53.112;8.896;2023-10-08T03:42:43;5.27;;;2.27;;
5125;SDS011;63008;53.112;8.896;2023-10-08T03:44:50;12.30;;;3.47;;
5125;SDS011;63008;53.112;8.896;2023-10-08T03:46:56;8.33;;;3.23;;
5125;SDS011;63008;53.112;8.896;2023-10-08T03:48:58;8.00;;;3.53;;
5125;SDS011;63008;53.112;8.896;2023-10-08T03:51:05;13.20;;;4.23;;
5125;SDS011;63008;53.112;8.896;2023-10-08T03:53:12;14.53;;;3.70;;
5125;SDS011;63008;53.112;8.896;2023-10-08T03:55:13;10.17;;;3.93;;
5125;SDS011;63008;53.112;8.896;2023-10-08T03:57:22;13.47;;;5.10;;
5125;SDS011;63008;53.112;8.896;2023-10-08T03:59:25;13.90;;;5.13;;
5125;SDS011;63008;53.112;8.896;2023-10-08T04:01:32;14.43;;;4.47;;
5125;SDS011;63008;53.112;8.896;2023-10-08T04:03:35;7.57;;;4.40;;
5125;SDS011;63008;53.112;8.896;2023-10-08T04:05:57;10.37;;;4.20;;
5125;SDS011;63008;53.112;8.896;2023-10-08T04:08:15;9.70;;;3.30;;
5125;SDS011;63008;53.112;8.896;2023-10-08T04:10:25;13.60;;;3.53;;
5125;SDS011;63008;53.112;8.896;2023-10-08T04:12:50;7.80;;;3.60;;
5125;SDS011;63008;53.112;8.896;2023-10-08T04:14:53;4.37;;;3.00;;
5125;SDS011;63008;53.112;8.896;2023-10-08T04:16:56;10.33;;;3.37;;
5125;SDS011;63008;53.112;8.896;2023-10-08T04:18:59;18.13;;;3.13;;
5125;SDS011;63008;53.112;8.896;2023-10-08T04:21:03;6.60;;;3.20;;
5125;SDS011;63008;53.112;8.896;2023-10-08T04:23:13;9.70;;;2.77;;
5125;SDS011;63008;53.112;8.896;2023-10-08T04:25:18;9.60;;;3.10;;
5125;SDS011;63008;53.112;8.896;2023-10-08T04:27:19;7.17;;;2.83;;
5125;SDS011;63008;53.112;8.896;2023-10-08T04:29:23;11.53;;;3.43;;
5125;SDS011;63008;53.112;8.896;2023-10-08T04:31:24;9.63;;;2.53;;
5125;SDS011;63008;53.112;8.896;2023-10-08T04:33:28;15.33;;;3.40;;
5125;SDS011;63008;53.112;8.896;2023-10-08T04:35:34;9.67;;;2.83;;
5125;SDS011;63008;53.112;8.896;2023-10-08T04:37:48;13.00;;;3.47;;
5125;SDS011;63008;53.112;8.896;2023-10-08T04:39:53;9.30;;;3.90;;
5125;SDS011;63008;53.112;8.896;2023-10-08T04:41:59;14.27;;;4.10;;
5125;SDS011;63008;53.112;8.896;2023-10-08T04:44:10;7.10;;;3.70;;
5125;SDS011;63008;53.112;8.896;2023-10-08T04:46:16;8.77;;;3.73;;
5125;SDS011;63008;53.112;8.896;2023-10-08T04:48:20;18.33;;;4.77;;
5125;SDS011;63008;53.112;8.896;2023-10-08T04:50:21;11.90;;;4.67;;
5125;SDS011;63008;53.112;8.896;2023-10-08T04:52:22;12.57;;;5.40;;
5125;SDS011;63008;53.112;8.896;2023-10-08T04:54:26;18.83;;;5.40;;
5125;SDS011;63008;53.112;8.896;2023-10-08T04:56:30;9.20;;;4.20;;
5125;SDS011;63008;53.112;8.896;2023-10-08T04:58:36;11.80;;;5.00;;
5125;SDS011;63008;53.112;8.896;2023-10-08T05:00:37;13.60;;;5.10;;
5125;SDS011;63008;53.112;8.896;2023-10-08T05:03:00;9.83;;;5.37;;
5125;SDS011;63008;53.112;8.896;2023-10-08T05:05:11;14.33;;;5.40;;
5125;SDS011;63008;53.112;8.896;2023-10-08T05:07:12;18.63;;;5.83;;
5125;SDS011;63008;53.112;8.896;2023-10-08T05:09:32;8.80;;;5.30;;
5125;SDS011;63008;53.112;8.896;2023-10-08T05:11:51;14.63;;;6.43;;
5125;SDS011;63008;53.112;8.896;2023-10-08T05:13:53;11.93;;;5.50;;
5125;SDS011;63008;53.112;8.896;2023-10-08T05:16:03;17.13;;;6.27;;
5125;SDS011;63008;53.112;8.896;2023-10-08T05:18:20;14.93;;;5.10;;
5125;SDS011;63008;53.112;8.896;2023-10-08T05:20:23;12.50;;;5.80;;
5125;SDS011;63008;53.112;8.896;2023-10-08T05:22:43;15.40;;;4.80;;
5125;SDS011;63008;53.112;8.896;2023-10-08T05:24:45;13.00;;;5.30;;
5125;SDS011;63008;53.112;8.896;2023-10-08T05:27:06;8.93;;;4.47;;
5125;SDS011;63008;53.112;8.896;2023-10-08T05:29:30;14.80;;;5.20;;
5125;SDS011;63008;53.112;8.896;2023-10-08T05:31:49;9.97;;;3.70;;
5125;SDS011;63008;53.112;8.896;2023-10-08T05:34:10;6.63;;;3.83;;
5125;SDS011;63008;53.112;8.896;2023-10-08T05:36:30;5.00;;;3.57;;
5125;SDS011;63008;53.112;8.896;2023-10-08T05:38:50;9.20;;;3.60;;
5125;SDS011;63008;53.112;8.896;2023-10-08T05:41:10;8.73;;;3.53;;
5125;SDS011;63008;53.112;8.896;2023-10-08T05:45:42;10.20;;;3.70;;
5125;SDS011;63008;53.112;8.896;2023-10-08T05:47:53;12.03;;;3.90;;
5125;SDS011;63008;53.112;8.896;2023-10-08T05:50:13;7.50;;;4.10;;
5125;SDS011;63008;53.112;8.896;2023-10-08T05:52:16;11.57;;;3.50;;
5125;SDS011;63008;53.112;8.896;2023-10-08T05:54:28;12.97;;;3.47;;
5125;SDS011;63008;53.112;8.896;2023-10-08T05:56:32;7.20;;;3.70;;
5125;SDS011;63008;53.112;8.896;2023-10-08T05:58:53;8.07;;;3.83;;
5125;SDS011;63008;53.112;8.896;2023-10-08T06:01:18;7.23;;;3.60;;
5125;SDS011;63008;53.112;8.896;2023-10-08T06:03:40;12.60;;;3.87;;
5125;SDS011;63008;53.112;8.896;2023-10-08T06:06:01;9.67;;;3.63;;
5125;SDS011;63008;53.112;8.896;2023-10-08T06:08:12;16.80;;;4.00;;
5125;SDS011;63008;53.112;8.896;2023-10-08T06:10:15;9.20;;;3.87;;
5125;SDS011;63008;53.112;8.896;2023-10-08T06:12:32;8.43;;;4.23;;
5125;SDS011;63008;53.112;8.896;2023-10-08T06:14:45;17.83;;;3.87;;
5125;SDS011;63008;53.112;8.896;2023-10-08T06:17:05;12.23;;;4.50;;
5125;SDS011;63008;53.112;8.896;2023-10-08T06:19:24;7.60;;;4.10;;
5125;SDS011;63008;53.112;8.896;2023-10-08T06:21:26;6.73;;;4.23;;
5125;SDS011;63008;53.112;8.896;2023-10-08T06:23:28;16.77;;;4.90;;
5125;SDS011;63008;53.112;8.896;2023-10-08T06:25:35;6.23;;;4.40;;
5125;SDS011;63008;53.112;8.896;2023-10-08T06:27:56;8.97;;;4.30;;
5125;SDS011;63008;53.112;8.896;2023-10-08T06:29:58;8.83;;;4.90;;
5125;SDS011;63008;53.112;8.896;2023-10-08T06:31:59;11.03;;;4.43;;
5125;SDS011;63008;53.112;8.896;2023-10-08T06:34:02;8.63;;;4.80;;
5125;SDS011;63008;53.112;8.896;2023-10-08T06:36:04;10.93;;;4.53;;
5125;SDS011;63008;53.112;8.896;2023-10-08T06:38:11;12.53;;;5.63;;
5125;SDS011;63008;53.112;8.896;2023-10-08T06:40:15;12.00;;;6.07;;
5125;SDS011;63008;53.112;8.896;2023-10-08T06:42:36;11.67;;;4.97;;
5125;SDS011;63008;53.112;8.896;2023-10-08T06:44:37;8.83;;;5.60;;
5125;SDS011;63008;53.112;8.896;2023-10-08T06:46:43;13.87;;;4.93;;
5125;SDS011;63008;53.112;8.896;2023-10-08T06:48:45;7.57;;;5.40;;
5125;SDS011;63008;53.112;8.896;2023-10-08T06:50:47;10.90;;;5.93;;
5125;SDS011;63008;53.112;8.896;2023-10-08T06:52:48;10.63;;;5.20;;
5125;SDS011;63008;53.112;8.896;2023-10-08T06:54:49;11.83;;;5.43;;
5125;SDS011;63008;53.112;8.896;2023-10-08T06:56:53;15.30;;;6.17;;
5125;SDS011;63008;53.112;8.896;2023-10-08T06:58:54;16.20;;;5.80;;
5125;SDS011;63008;53.112;8.896;2023-10-08T07:00:55;10.87;;;5.00;;
5125;SDS011;63008;53.112;8.896;2023-10-08T07:02:59;11.23;;;5.70;;
5125;SDS011;63008;53.112;8.896;2023-10-08T07:05:01;12.53;;;5.60;;
5125;SDS011;63008;53.112;8.896;2023-10-08T07:07:09;12.27;;;6.17;;
5125;SDS011;63008;53.112;8.896;2023-10-08T07:09:19;18.60;;;5.50;;
5125;SDS011;63008;53.112;8.896;2023-10-08T07:11:46;11.03;;;5.87;;
5125;SDS011;63008;53.112;8.896;2023-10-08T07:13:50;11.93;;;5.40;;
5125;SDS011;63008;53.112;8.896;2023-10-08T07:15:52;16.20;;;6.77;;
5125;SDS011;63008;53.112;8.896;2023-10-08T07:17:53;8.73;;;5.57;;
5125;SDS011;63008;53.112;8.896;2023-10-08T07:19:55;12.70;;;5.90;;
5125;SDS011;63008;53.112;8.896;2023-10-08T07:21:57;9.57;;;5.10;;
5125;SDS011;63008;53.112;8.896;2023-10-08T07:24:07;13.53;;;5.53;;
5125;SDS011;63008;53.112;8.896;2023-10-08T07:26:15;11.37;;;5.27;;
5125;SDS011;63008;53.112;8.896;2023-10-08T07:28:21;5.60;;;4.60;;
5125;SDS011;63008;53.112;8.896;2023-10-08T07:30:22;11.70;;;4.80;;
5125;SDS011;63008;53.112;8.896;2023-10-08T07:32:33;8.50;;;4.90;;
5125;SDS011;63008;53.112;8.896;2023-10-08T07:34:34;8.07;;;4.20;;
5125;SDS011;63008;53.112;8.896;2023-10-08T07:36:39;7.97;;;4.20;;
5125;SDS011;63008;53.112;8.896;2023-10-08T07:38:40;14.07;;;4.40;;
5125;SDS011;63008;53.112;8.896;2023-10-08T07:40:44;18.13;;;5.60;;
5125;SDS011;63008;53.112;8.896;2023-10-08T07:42:46;13.03;;;4.43;;
5125;SDS011;63008;53.112;8.896;2023-10-08T07:44:52;7.60;;;3.73;;
5125;SDS011;63008;53.112;8.896;2023-10-08T07:46:55;6.10;;;3.80;;
5125;SDS011;63008;53.112;8.896;2023-10-08T07:48:56;8.47;;;3.50;;
5125;SDS011;63008;53.112;8.896;2023-10-08T07:50:58;6.83;;;3.30;;
5125;SDS011;63008;53.112;8.896;2023-10-08T07:53:00;8.13;;;3.53;;
5125;SDS011;63008;53.112;8.896;2023-10-08T07:55:01;5.03;;;3.03;;
5125;SDS011;63008;53.112;8.896;2023-10-08T07:57:05;5.50;;;2.80;;
5125;SDS011;63008;53.112;8.896;2023-10-08T07:59:09;8.47;;;2.60;;
5125;SDS011;63008;53.112;8.896;2023-10-08T08:01:12;7.97;;;2.90;;
5125;SDS011;63008;53.112;8.896;2023-10-08T08:03:15;6.43;;;2.60;;
5125;SDS011;63008;53.112;8.896;2023-10-08T08:05:16;4.33;;;2.70;;
5125;SDS011;63008;53.112;8.896;2023-10-08T08:07:17;6.63;;;2.60;;
5125;SDS011;63008;53.112;8.896;2023-10-08T08:09:19;6.83;;;2.30;;
5125;SDS011;63008;53.112;8.896;2023-10-08T08:11:20;6.33;;;2.50;;
5125;SDS011;63008;53.112;8.896;2023-10-08T08:13:26;12.13;;;2.73;;
5125;SDS011;63008;53.112;8.896;2023-10-08T08:15:28;8.07;;;2.70;;
5125;SDS011;63008;53.112;8.896;2023-10-08T08:17:30;9.50;;;2.50;;
5125;SDS011;63008;53.112;8.896;2023-10-08T08:19:31;5.63;;;1.87;;
5125;SDS011;63008;53.112;8.896;2023-10-08T08:21:32;6.07;;;1.50;;
5125;SDS011;63008;53.112;8.896;2023-10-08T08:23:33;4.23;;;1.67;;
5125;SDS011;63008;53.112;8.896;2023-10-08T08:25:41;11.40;;;1.73;;
5125;SDS011;63008;53.112;8.896;2023-10-08T08:28:05;2.93;;;1.20;;
5125;SDS011;63008;53.112;8.896;2023-10-08T08:30:08;7.00;;;2.20;;
5125;SDS011;63008;53.112;8.896;2023-10-08T08:32:16;3.90;;;1.40;;
5125;SDS011;63008;53.112;8.896;2023-10-08T08:34:22;5.33;;;1.47;;
5125;SDS011;63008;53.112;8.896;2023-10-08T08:36:24;7.10;;;1.57;;
5125;SDS011;63008;53.112;8.896;2023-10-08T08:38:26;3.97;;;1.60;;
5125;SDS011;63008;53.112;8.896;2023-10-08T08:40:30;4.53;;;1.60;;
5125;SDS011;63008;53.112;8.896;2023-10-08T08:42:31;7.03;;;1.90;;
5125;SDS011;63008;53.112;8.896;2023-10-08T08:44:36;3.30;;;1.60;;
5125;SDS011;63008;53.112;8.896;2023-10-08T08:46:46;6.43;;;2.10;;
5125;SDS011;63008;53.112;8.896;2023-10-08T08:48:48;8.23;;;1.80;;
5125;SDS011;63008;53.112;8.896;2023-10-08T08:50:51;10.83;;;1.50;;
5125;SDS011;63008;53.112;8.896;2023-10-08T08:52:53;7.93;;;1.70;;
5125;SDS011;63008;53.112;8.896;2023-10-08T08:54:54;3.00;;;1.40;;
5125;SDS011;63008;53.112;8.896;2023-10-08T08:56:56;6.63;;;1.40;;
5125;SDS011;63008;53.112;8.896;2023-10-08T08:59:00;4.77;;;1.63;;
5125;SDS011;63008;53.112;8.896;2023-10-08T09:01:02;4.73;;;1.30;;
5125;SDS011;63008;53.112;8.896;2023-10-08T09:03:05;5.17;;;1.30;;
5125;SDS011;63008;53.112;8.896;2023-10-08T09:05:08;6.63;;;1.90;;
5125;SDS011;63008;53.112;8.896;2023-10-08T09:07:34;8.07;;;1.47;;
5125;SDS011;63008;53.112;8.896;2023-10-08T09:09:35;5.97;;;1.50;;
5125;SDS011;63008;53.112;8.896;2023-10-08T09:11:45;4.60;;;1.73;;
5125;SDS011;63008;53.112;8.896;2023-10-08T09:13:46;3.60;;;1.20;;
5125;SDS011;63008;53.112;8.896;2023-10-08T09:15:47;6.27;;;1.77;;
5125;SDS011;63008;53.112;8.896;2023-10-08T09:17:49;6.47;;;1.30;;
5125;SDS011;63008;53.112;8.896;2023-10-08T09:19:50;11.50;;;2.10;;
5125;SDS011;63008;53.112;8.896;2023-10-08T09:22:01;16.10;;;1.90;;
5125;SDS011;63008;53.112;8.896;2023-10-08T09:24:06;4.10;;;1.13;;
5125;SDS011;63008;53.112;8.896;2023-10-08T09:26:11;9.17;;;2.47;;
5125;SDS011;63008;53.112;8.896;2023-10-08T09:28:14;5.03;;;1.60;;
5125;SDS011;63008;53.112;8.896;2023-10-08T09:30:15;8.50;;;1.90;;
5125;SDS011;63008;53.112;8.896;2023-10-08T09:32:19;3.83;;;1.33;;
5125;SDS011;63008;53.112;8.896;2023-10-08T09:34:28;10.23;;;1.60;;
5125;SDS011;63008;53.112;8.896;2023-10-08T09:36:30;4.00;;;1.23;;
5125;SDS011;63008;53.112;8.896;2023-10-08T09:38:33;5.50;;;1.70;;
5125;SDS011;63008;53.112;8.896;2023-10-08T09:40:40;8.20;;;1.27;;
5125;SDS011;63008;53.112;8.896;2023-10-08T09:42:42;8.73;;;1.90;;
5125;SDS011;63008;53.112;8.896;2023-10-08T09:44:43;3.20;;;1.23;;
5125;SDS011;63008;53.112;8.896;2023-10-08T09:46:44;2.90;;;1.40;;
5125;SDS011;63008;53.112;8.896;2023-10-08T09:48:53;8.30;;;1.33;;
5125;SDS011;63008;53.112;8.896;2023-10-08T09:51:00;4.83;;;1.60;;
5125;SDS011;63008;53.112;8.896;2023-10-08T09:53:08;5.70;;;1.70;;
5125;SDS011;63008;53.112;8.896;2023-10-08T09:55:17;6.23;;;1.43;;
5125;SDS011;63008;53.112;8.896;2023-10-08T09:57:18;3.87;;;1.43;;
5125;SDS011;63008;53.112;8.896;2023-10-08T09:59:20;3.30;;;1.30;;
5125;SDS011;63008;53.112;8.896;2023-10-08T10:01:22;3.33;;;1.20;;
5125;SDS011;63008;53.112;8.896;2023-10-08T10:03:25;6.00;;;1.50;;
5125;SDS011;63008;53.112;8.896;2023-10-08T10:05:30;6.40;;;1.37;;
5125;SDS011;63008;53.112;8.896;2023-10-08T10:07:33;11.30;;;1.47;;
5125;SDS011;63008;53.112;8.896;2023-10-08T10:09:35;5.93;;;1.57;;
5125;SDS011;63008;53.112;8.896;2023-10-08T10:11:37;4.73;;;1.30;;
5125;SDS011;63008;53.112;8.896;2023-10-08T10:13:38;6.33;;;1.60;;
5125;SDS011;63008;53.112;8.896;2023-10-08T10:15:42;3.80;;;1.50;;
5125;SDS011;63008;53.112;8.896;2023-10-08T10:17:43;5.20;;;1.30;;
5125;SDS011;63008;53.112;8.896;2023-10-08T10:19:44;4.83;;;1.40;;
5125;SDS011;63008;53.112;8.896;2023-10-08T10:21:47;4.23;;;1.40;;
5125;SDS011;63008;53.112;8.896;2023-10-08T10:23:48;4.20;;;1.37;;
5125;SDS011;63008;53.112;8.896;2023-10-08T10:25:56;4.47;;;1.63;;
5125;SDS011;63008;53.112;8.896;2023-10-08T10:30:03;5.77;;;1.73;;
5125;SDS011;63008;53.112;8.896;2023-10-08T10:32:19;11.40;;;2.63;;
5125;SDS011;63008;53.112;8.896;2023-10-08T10:34:21;5.20;;;1.50;;
5125;SDS011;63008;53.112;8.896;2023-10-08T10:36:27;11.27;;;1.53;;
5125;SDS011;63008;53.112;8.896;2023-10-08T10:38:31;3.30;;;1.27;;
5125;SDS011;63008;53.112;8.896;2023-10-08T10:40:34;10.23;;;1.53;;
5125;SDS011;63008;53.112;8.896;2023-10-08T10:42:41;5.63;;;1.90;;
5125;SDS011;63008;53.112;8.896;2023-10-08T10:44:54;3.30;;;1.60;;
5125;SDS011;63008;53.112;8.896;2023-10-08T10:46:56;9.63;;;1.50;;
5125;SDS011;63008;53.112;8.896;2023-10-08T10:49:19;9.90;;;1.50;;
5125;SDS011;63008;53.112;8.896;2023-10-08T10:51:32;4.07;;;1.57;;
5125;SDS011;63008;53.112;8.896;2023-10-08T10:53:35;8.27;;;1.30;;
5125;SDS011;63008;53.112;8.896;2023-10-08T10:56:01;10.47;;;1.90;;
5125;SDS011;63008;53.112;8.896;2023-10-08T10:58:06;3.07;;;1.13;;
5125;SDS011;63008;53.112;8.896;2023-10-08T11:00:12;14.73;;;1.83;;
5125;SDS011;63008;53.112;8.896;2023-10-08T11:02:31;4.73;;;1.40;;
5125;SDS011;63008;53.112;8.896;2023-10-08T11:04:32;5.57;;;1.20;;
5125;SDS011;63008;53.112;8.896;2023-10-08T11:06:46;8.40;;;1.87;;
5125;SDS011;63008;53.112;8.896;2023-10-08T11:08:51;6.17;;;1.60;;
5125;SDS011;63008;53.112;8.896;2023-10-08T11:10:53;10.43;;;2.00;;
5125;SDS011;63008;53.112;8.896;2023-10-08T11:12:59;5.07;;;1.93;;
5125;SDS011;63008;53.112;8.896;2023-10-08T11:15:03;11.70;;;1.43;;
5125;SDS011;63008;53.112;8.896;2023-10-08T11:17:23;5.07;;;1.40;;
5125;SDS011;63008;53.112;8.896;2023-10-08T11:19:26;5.40;;;1.10;;
5125;SDS011;63008;53.112;8.896;2023-10-08T11:21:28;9.60;;;1.83;;
5125;SDS011;63008;53.112;8.896;2023-10-08T11:23:35;2.93;;;1.50;;
5125;SDS011;63008;53.112;8.896;2023-10-08T11:25:38;5.40;;;1.57;;
5125;SDS011;63008;53.112;8.896;2023-10-08T11:27:44;5.70;;;1.20;;
5125;SDS011;63008;53.112;8.896;2023-10-08T11:29:47;6.43;;;1.60;;
5125;SDS011;63008;53.112;8.896;2023-10-08T11:31:48;4.67;;;1.37;;
5125;SDS011;63008;53.112;8.896;2023-10-08T11:33:49;4.07;;;1.23;;
5125;SDS011;63008;53.112;8.896;2023-10-08T11:36:02;6.33;;;1.50;;
5125;SDS011;63008;53.112;8.896;2023-10-08T11:38:07;4.43;;;1.23;;
5125;SDS011;63008;53.112;8.896;2023-10-08T11:40:22;2.43;;;1.10;;
5125;SDS011;63008;53.112;8.896;2023-10-08T11:42:29;7.03;;;1.73;;
5125;SDS011;63008;53.112;8.896;2023-10-08T11:44:32;6.53;;;1.37;;
5125;SDS011;63008;53.112;8.896;2023-10-08T11:46:36;3.40;;;1.10;;
5125;SDS011;63008;53.112;8.896;2023-10-08T11:48:40;1.27;;;1.17;;
5125;SDS011;63008;53.112;8.896;2023-10-08T11:50:44;3.33;;;1.20;;
5125;SDS011;63008;53.112;8.896;2023-10-08T11:52:45;9.83;;;1.73;;
5125;SDS011;63008;53.112;8.896;2023-10-08T11:54:46;4.37;;;1.13;;
5125;SDS011;63008;53.112;8.896;2023-10-08T11:56:49;3.80;;;1.00;;
5125;SDS011;63008;53.112;8.896;2023-10-08T11:58:51;4.20;;;1.07;;
5125;SDS011;63008;53.112;8.896;2023-10-08T12:00:53;3.80;;;1.40;;
5125;SDS011;63008;53.112;8.896;2023-10-08T12:02:54;9.03;;;1.60;;
5125;SDS011;63008;53.112;8.896;2023-10-08T12:04:55;8.13;;;1.77;;
5125;SDS011;63008;53.112;8.896;2023-10-08T12:06:58;3.30;;;1.70;;
5125;SDS011;63008;53.112;8.896;2023-10-08T12:09:03;3.73;;;1.23;;
5125;SDS011;63008;53.112;8.896;2023-10-08T12:11:13;5.83;;;1.50;;
5125;SDS011;63008;53.112;8.896;2023-10-08T12:13:14;4.93;;;1.50;;
5125;SDS011;63008;53.112;8.896;2023-10-08T12:15:19;4.10;;;1.47;;
5125;SDS011;63008;53.112;8.896;2023-10-08T12:17:20;2.47;;;1.17;;
5125;SDS011;63008;53.112;8.896;2023-10-08T12:19:30;9.30;;;1.30;;
5125;SDS011;63008;53.112;8.896;2023-10-08T12:21:32;8.90;;;1.23;;
5125;SDS011;63008;53.112;8.896;2023-10-08T12:23:33;7.60;;;1.93;;
5125;SDS011;63008;53.112;8.896;2023-10-08T12:25:34;4.30;;;1.30;;
5125;SDS011;63008;53.112;8.896;2023-10-08T12:27:37;8.73;;;1.47;;
5125;SDS011;63008;53.112;8.896;2023-10-08T12:29:39;4.60;;;1.40;;
5125;SDS011;63008;53.112;8.896;2023-10-08T12:31:43;3.17;;;1.30;;
5125;SDS011;63008;53.112;8.896;2023-10-08T12:33:48;9.70;;;1.93;;
5125;SDS011;63008;53.112;8.896;2023-10-08T12:35:54;4.03;;;1.47;;
5125;SDS011;63008;53.112;8.896;2023-10-08T12:37:56;3.63;;;1.37;;
5125;SDS011;63008;53.112;8.896;2023-10-08T12:39:57;8.43;;;1.50;;
5125;SDS011;63008;53.112;8.896;2023-10-08T12:42:12;5.33;;;1.37;;
5125;SDS011;63008;53.112;8.896;2023-10-08T12:44:13;6.93;;;1.70;;
5125;SDS011;63008;53.112;8.896;2023-10-08T12:46:16;5.50;;;1.10;;
5125;SDS011;63008;53.112;8.896;2023-10-08T12:48:25;4.93;;;1.10;;
5125;SDS011;63008;53.112;8.896;2023-10-08T12:50:26;2.07;;;1.23;;
5125;SDS011;63008;53.112;8.896;2023-10-08T12:52:35;5.27;;;1.50;;